sensor_id;sensor_type;location;lat;lon;timestamp;pressure;altitude;pressure_sealevel;temperature;humidity
46614;BME280;32338;50.430;6.806;2023-04-12T00:01:56;66022.81;;;5.55;100.00
46614;BME280;32338;50.430;6.806;2023-04-12T00:04:22;66023.16;;;5.52;100.00
46614;BME280;32338;50.430;6.806;2023-04-12T00:06:52;66014.53;;;5.42;100.00
46614;BME280;32338;50.430;6.806;2023-04-12T00:09:21;66013.63;;;5.44;100.00
46614;BME280;32338;50.430;6.806;2023-04-12T00:11:47;66010.81;;;5.41;100.00
46614;BME280;32338;50.430;6.806;2023-04-12T00:14:14;66005.56;;;5.34;100.00
46614;BME280;32338;50.430;6.806;2023-04-12T00:16:41;65995.88;;;5.30;100.00
46614;BME280;32338;50.430;6.806;2023-04-12T00:19:07;65988.03;;;5.23;100.00
46614;BME280;32338;50.430;6.806;2023-04-12T00:21:34;65993.44;;;5.25;100.00
46614;BME280;32338;50.430;6.806;2023-04-12T00:24:01;66005.00;;;5.33;100.00
46614;BME280;32338;50.430;6.806;2023-04-12T00:26:29;65996.81;;;5.28;100.00
46614;BME280;32338;50.430;6.806;2023-04-12T00:28:55;66006.47;;;5.32;100.00
46614;BME280;32338;50.430;6.806;2023-04-12T00:31:22;66001.28;;;5.32;100.00
46614;BME280;32338;50.430;6.806;2023-04-12T00:33:48;65982.63;;;5.20;100.00
46614;BME280;32338;50.430;6.806;2023-04-12T00:36:15;65985.38;;;5.15;100.00
46614;BME280;32338;50.430;6.806;2023-04-12T00:38:41;65979.22;;;5.10;100.00
46614;BME280;32338;50.430;6.806;2023-04-12T00:41:10;65981.81;;;5.10;100.00
46614;BME280;32338;50.430;6.806;2023-04-12T00:43:38;65967.63;;;5.01;100.00
46614;BME280;32338;50.430;6.806;2023-04-12T00:46:06;65981.09;;;5.14;100.00
46614;BME280;32338;50.430;6.806;2023-04-12T00:48:33;65964.69;;;5.03;100.00
46614;BME280;32338;50.430;6.806;2023-04-12T00:51:00;65959.63;;;4.99;100.00
46614;BME280;32338;50.430;6.806;2023-04-12T00:53:30;65962.38;;;4.94;100.00
46614;BME280;32338;50.430;6.806;2023-04-12T00:55:57;65972.69;;;5.06;100.00
46614;BME280;32338;50.430;6.806;2023-04-12T00:58:23;65961.88;;;5.01;100.00
46614;BME280;32338;50.430;6.806;2023-04-12T01:00:52;65969.31;;;5.03;100.00
46614;BME280;32338;50.430;6.806;2023-04-12T01:03:20;65968.56;;;5.00;100.00
46614;BME280;32338;50.430;6.806;2023-04-12T01:05:54;65960.56;;;4.97;100.00
46614;BME280;32338;50.430;6.806;2023-04-12T01:08:29;65965.38;;;4.99;100.00
46614;BME280;32338;50.430;6.806;2023-04-12T01:11:01;65965.97;;;5.00;100.00
46614;BME280;32338;50.430;6.806;2023-04-12T01:13:34;65954.53;;;4.87;100.00
46614;BME280;32338;50.430;6.806;2023-04-12T01:16:12;65940.38;;;4.79;100.00
46614;BME280;32338;50.430;6.806;2023-04-12T01:18:41;65944.66;;;4.80;100.00
46614;BME280;32338;50.430;6.806;2023-04-12T01:21:17;65935.13;;;4.71;100.00
46614;BME280;32338;50.430;6.806;2023-04-12T01:24:07;65946.31;;;4.82;100.00
46614;BME280;32338;50.430;6.806;2023-04-12T01:26:40;65949.69;;;4.85;100.00
46614;BME280;32338;50.430;6.806;2023-04-12T01:29:11;65951.03;;;4.89;100.00
46614;BME280;32338;50.430;6.806;2023-04-12T01:31:42;65940.72;;;4.77;100.00
46614;BME280;32338;50.430;6.806;2023-04-12T01:34:10;65943.94;;;4.84;100.00
46614;BME280;32338;50.430;6.806;2023-04-12T01:36:40;65951.94;;;4.87;100.00
46614;BME280;32338;50.430;6.806;2023-04-12T01:39:08;65960.91;;;4.95;100.00
46614;BME280;32338;50.430;6.806;2023-04-12T01:41:39;65956.63;;;4.94;100.00
46614;BME280;32338;50.430;6.806;2023-04-12T01:44:07;65951.56;;;4.89;100.00
46614;BME280;32338;50.430;6.806;2023-04-12T01:46:35;65950.63;;;4.83;100.00
46614;BME280;32338;50.430;6.806;2023-04-12T01:49:02;65948.91;;;4.82;100.00
46614;BME280;32338;50.430;6.806;2023-04-12T01:51:38;65942.97;;;4.79;100.00
46614;BME280;32338;50.430;6.806;2023-04-12T01:54:11;65942.75;;;4.76;100.00
46614;BME280;32338;50.430;6.806;2023-04-12T01:56:40;65948.72;;;4.79;100.00
46614;BME280;32338;50.430;6.806;2023-04-12T01:59:09;65938.28;;;4.72;100.00
46614;BME280;32338;50.430;6.806;2023-04-12T02:01:39;65942.75;;;4.76;100.00
46614;BME280;32338;50.430;6.806;2023-04-12T02:04:06;65931.56;;;4.66;100.00
46614;BME280;32338;50.430;6.806;2023-04-12T02:06:33;65936.59;;;4.70;100.00
46614;BME280;32338;50.430;6.806;2023-04-12T02:09:02;65942.19;;;4.76;100.00
46614;BME280;32338;50.430;6.806;2023-04-12T02:11:29;65931.75;;;4.68;100.00
46614;BME280;32338;50.430;6.806;2023-04-12T02:13:56;65924.47;;;4.62;100.00
46614;BME280;32338;50.430;6.806;2023-04-12T02:16:23;65919.28;;;4.62;100.00
46614;BME280;32338;50.430;6.806;2023-04-12T02:18:51;65925.59;;;4.63;100.00
46614;BME280;32338;50.430;6.806;2023-04-12T02:21:17;65927.84;;;4.65;100.00
46614;BME280;32338;50.430;6.806;2023-04-12T02:23:45;65924.88;;;4.67;100.00
46614;BME280;32338;50.430;6.806;2023-04-12T02:26:11;65931.91;;;4.64;100.00
46614;BME280;32338;50.430;6.806;2023-04-12T02:28:38;65931.75;;;4.68;100.00
46614;BME280;32338;50.430;6.806;2023-04-12T02:31:05;65928.19;;;4.63;100.00
46614;BME280;32338;50.430;6.806;2023-04-12T02:33:32;65931.56;;;4.66;100.00
46614;BME280;32338;50.430;6.806;2023-04-12T02:36:01;65928.19;;;4.63;100.00
46614;BME280;32338;50.430;6.806;2023-04-12T02:38:28;65929.72;;;4.69;100.00
46614;BME280;32338;50.430;6.806;2023-04-12T02:40:54;65928.19;;;4.63;100.00
46614;BME280;32338;50.430;6.806;2023-04-12T02:43:21;65927.25;;;4.64;100.00
46614;BME280;32338;50.430;6.806;2023-04-12T02:45:47;65938.13;;;4.77;100.00
46614;BME280;32338;50.430;6.806;2023-04-12T02:48:14;65941.28;;;4.77;100.00
46614;BME280;32338;50.430;6.806;2023-04-12T02:50:40;65931.41;;;4.70;100.00
46614;BME280;32338;50.430;6.806;2023-04-12T02:53:08;65935.13;;;4.71;100.00
46614;BME280;32338;50.430;6.806;2023-04-12T02:55:36;65944.22;;;4.75;100.00
46614;BME280;32338;50.430;6.806;2023-04-12T02:58:04;65937.38;;;4.74;100.00
46614;BME280;32338;50.430;6.806;2023-04-12T03:00:31;65931.97;;;4.71;100.00
46614;BME280;32338;50.430;6.806;2023-04-12T03:02:57;65940.31;;;4.71;100.00
46614;BME280;32338;50.430;6.806;2023-04-12T03:05:24;65933.44;;;4.70;100.00
46614;BME280;32338;50.430;6.806;2023-04-12T03:07:51;65929.16;;;4.68;100.00
46614;BME280;32338;50.430;6.806;2023-04-12T03:10:19;65941.63;;;4.75;100.00
46614;BME280;32338;50.430;6.806;2023-04-12T03:12:46;65939.03;;;4.75;100.00
46614;BME280;32338;50.430;6.806;2023-04-12T03:15:12;65938.69;;;4.77;100.00
46614;BME280;32338;50.430;6.806;2023-04-12T03:17:39;65929.72;;;4.69;100.00
46614;BME280;32338;50.430;6.806;2023-04-12T03:20:08;65922.44;;;4.62;100.00
46614;BME280;32338;50.430;6.806;2023-04-12T03:22:35;65931.19;;;4.68;100.00
46614;BME280;32338;50.430;6.806;2023-04-12T03:25:02;65932.66;;;4.67;100.00
46614;BME280;32338;50.430;6.806;2023-04-12T03:27:30;65930.44;;;4.65;100.00
46614;BME280;32338;50.430;6.806;2023-04-12T03:29:57;65924.47;;;4.62;100.00
46614;BME280;32338;50.430;6.806;2023-04-12T03:32:23;65933.22;;;4.67;100.00
46614;BME280;32338;50.430;6.806;2023-04-12T03:34:50;65932.31;;;4.69;100.00
46614;BME280;32338;50.430;6.806;2023-04-12T03:37:17;65934.56;;;4.71;100.00
46614;BME280;32338;50.430;6.806;2023-04-12T03:39:43;65930.06;;;4.67;100.00
46614;BME280;32338;50.430;6.806;2023-04-12T03:42:12;65933.78;;;4.68;100.00
46614;BME280;32338;50.430;6.806;2023-04-12T03:44:40;65927.47;;;4.67;100.00
46614;BME280;32338;50.430;6.806;2023-04-12T03:47:06;65933.66;;;4.73;100.00
46614;BME280;32338;50.430;6.806;2023-04-12T03:49:33;65939.97;;;4.74;100.00
46614;BME280;32338;50.430;6.806;2023-04-12T03:52:04;65944.84;;;4.83;100.00
46614;BME280;32338;50.430;6.806;2023-04-12T03:54:30;65944.44;;;4.78;100.00
46614;BME280;32338;50.430;6.806;2023-04-12T03:56:57;65939.59;;;4.76;100.00
46614;BME280;32338;50.430;6.806;2023-04-12T03:59:23;65940.72;;;4.77;100.00
46614;BME280;32338;50.430;6.806;2023-04-12T04:01:51;65931.75;;;4.68;100.00
46614;BME280;32338;50.430;6.806;2023-04-12T04:04:18;65928.38;;;4.65;100.00
46614;BME280;32338;50.430;6.806;2023-04-12T04:06:45;65934.00;;;4.70;100.00
46614;BME280;32338;50.430;6.806;2023-04-12T04:09:12;65937.56;;;4.76;100.00
46614;BME280;32338;50.430;6.806;2023-04-12T04:11:39;65939.38;;;4.73;100.00
46614;BME280;32338;50.430;6.806;2023-04-12T04:14:06;65943.88;;;4.77;100.00
46614;BME280;32338;50.430;6.806;2023-04-12T04:16:33;65942.41;;;4.78;100.00
46614;BME280;32338;50.430;6.806;2023-04-12T04:19:01;65935.13;;;4.71;100.00
46614;BME280;32338;50.430;6.806;2023-04-12T04:21:28;65931.97;;;4.71;100.00
46614;BME280;32338;50.430;6.806;2023-04-12T04:23:58;65937.91;;;4.74;100.00
46614;BME280;32338;50.430;6.806;2023-04-12T04:26:25;65938.63;;;4.70;100.00
46614;BME280;32338;50.430;6.806;2023-04-12T04:28:56;65931.75;;;4.68;100.00
46614;BME280;32338;50.430;6.806;2023-04-12T04:31:26;65941.09;;;4.75;100.00
46614;BME280;32338;50.430;6.806;2023-04-12T04:33:58;65937.91;;;4.74;100.00
46614;BME280;32338;50.430;6.806;2023-04-12T04:36:27;65935.91;;;4.75;100.00
46614;BME280;32338;50.430;6.806;2023-04-12T04:38:54;65940.16;;;4.76;100.00
46614;BME280;32338;50.430;6.806;2023-04-12T04:41:21;65935.69;;;4.72;100.00
46614;BME280;32338;50.430;6.806;2023-04-12T04:43:48;65940.16;;;4.76;100.00
46614;BME280;32338;50.430;6.806;2023-04-12T04:46:15;65956.78;;;4.89;100.00
46614;BME280;32338;50.430;6.806;2023-04-12T04:48:45;65940.72;;;4.77;100.00
46614;BME280;32338;50.430;6.806;2023-04-12T04:51:12;65939.59;;;4.76;100.00
46614;BME280;32338;50.430;6.806;2023-04-12T04:53:40;65957.34;;;4.90;100.00
46614;BME280;32338;50.430;6.806;2023-04-12T04:56:07;65937.38;;;4.74;100.00
46614;BME280;32338;50.430;6.806;2023-04-12T04:58:34;65936.03;;;4.70;100.00
46614;BME280;32338;50.430;6.806;2023-04-12T05:01:01;65941.09;;;4.75;100.00
46614;BME280;32338;50.430;6.806;2023-04-12T05:03:28;65942.75;;;4.76;100.00
46614;BME280;32338;50.430;6.806;2023-04-12T05:05:54;65945.41;;;4.83;100.00
46614;BME280;32338;50.430;6.806;2023-04-12T05:08:21;65954.53;;;4.87;100.00
46614;BME280;32338;50.430;6.806;2023-04-12T05:10:51;65948.56;;;4.84;100.00
46614;BME280;32338;50.430;6.806;2023-04-12T05:13:18;65945.22;;;4.81;100.00
46614;BME280;32338;50.430;6.806;2023-04-12T05:15:45;65952.84;;;4.85;100.00
46614;BME280;32338;50.430;6.806;2023-04-12T05:18:12;65948.22;;;4.86;100.00
46614;BME280;32338;50.430;6.806;2023-04-12T05:20:39;65955.84;;;4.91;100.00
46614;BME280;32338;50.430;6.806;2023-04-12T05:23:05;65947.09;;;4.85;100.00
46614;BME280;32338;50.430;6.806;2023-04-12T05:25:32;65953.03;;;4.88;100.00
46614;BME280;32338;50.430;6.806;2023-04-12T05:28:01;65949.13;;;4.84;100.00
46614;BME280;32338;50.430;6.806;2023-04-12T05:30:28;65951.72;;;4.84;100.00
46614;BME280;32338;50.430;6.806;2023-04-12T05:32:54;65962.38;;;4.94;100.00
46614;BME280;32338;50.430;6.806;2023-04-12T05:35:21;65957.34;;;4.90;100.00
46614;BME280;32338;50.430;6.806;2023-04-12T05:37:47;65962.75;;;4.92;100.00
46614;BME280;32338;50.430;6.806;2023-04-12T05:40:14;65955.50;;;4.93;100.00
46614;BME280;32338;50.430;6.806;2023-04-12T05:42:41;65957.91;;;4.90;100.00
46614;BME280;32338;50.430;6.806;2023-04-12T05:45:10;65954.75;;;4.90;100.00
46614;BME280;32338;50.430;6.806;2023-04-12T05:47:36;65963.28;;;4.93;100.00
46614;BME280;32338;50.430;6.806;2023-04-12T05:50:03;65964.63;;;4.96;100.00
46614;BME280;32338;50.430;6.806;2023-04-12T05:52:31;65967.63;;;5.01;100.00
46614;BME280;32338;50.430;6.806;2023-04-12T05:54:57;65975.28;;;5.06;100.00
46614;BME280;32338;50.430;6.806;2023-04-12T05:57:24;65973.03;;;5.04;100.00
46614;BME280;32338;50.430;6.806;2023-04-12T05:59:50;65969.31;;;5.03;100.00
46614;BME280;32338;50.430;6.806;2023-04-12T06:02:18;65971.56;;;5.05;100.00
46614;BME280;32338;50.430;6.806;2023-04-12T06:04:45;65971.00;;;5.05;100.00
46614;BME280;32338;50.430;6.806;2023-04-12T06:07:12;65971.91;;;5.03;100.00
46614;BME280;32338;50.430;6.806;2023-04-12T06:09:40;65968.41;;;5.05;100.00
46614;BME280;32338;50.430;6.806;2023-04-12T06:12:07;65976.41;;;5.07;100.00
46614;BME280;32338;50.430;6.806;2023-04-12T06:14:33;65979.00;;;5.07;100.00
46614;BME280;32338;50.430;6.806;2023-04-12T06:17:00;65978.84;;;5.12;100.00
46614;BME280;32338;50.430;6.806;2023-04-12T06:19:28;65987.03;;;5.17;100.00
46614;BME280;32338;50.430;6.806;2023-04-12T06:21:55;65986.84;;;5.14;100.00
46614;BME280;32338;50.430;6.806;2023-04-12T06:24:21;65984.81;;;5.15;100.00
46614;BME280;32338;50.430;6.806;2023-04-12T06:26:48;65994.34;;;5.24;100.00
46614;BME280;32338;50.430;6.806;2023-04-12T06:29:14;65990.28;;;5.25;100.00
46614;BME280;32338;50.430;6.806;2023-04-12T06:31:41;65996.56;;;5.26;100.00
46614;BME280;32338;50.430;6.806;2023-04-12T06:34:08;65997.69;;;5.27;100.00
46614;BME280;32338;50.430;6.806;2023-04-12T06:36:36;65999.94;;;5.29;100.00
46614;BME280;32338;50.430;6.806;2023-04-12T06:39:04;66002.00;;;5.28;100.00
46614;BME280;32338;50.430;6.806;2023-04-12T06:41:31;65998.47;;;5.30;100.00
46614;BME280;32338;50.430;6.806;2023-04-12T06:43:57;65997.34;;;5.29;100.00
46614;BME280;32338;50.430;6.806;2023-04-12T06:46:27;66008.72;;;5.34;100.00
46614;BME280;32338;50.430;6.806;2023-04-12T06:48:54;66010.63;;;5.39;100.00
46614;BME280;32338;50.430;6.806;2023-04-12T06:51:20;66010.44;;;5.43;100.00
46614;BME280;32338;50.430;6.806;2023-04-12T06:53:48;66023.56;;;5.58;100.00
46614;BME280;32338;50.430;6.806;2023-04-12T06:56:15;66030.03;;;5.54;100.00
46614;BME280;32338;50.430;6.806;2023-04-12T06:58:41;66024.84;;;5.54;100.00
46614;BME280;32338;50.430;6.806;2023-04-12T07:01:09;66033.63;;;5.60;100.00
46614;BME280;32338;50.430;6.806;2023-04-12T07:03:35;66038.25;;;5.59;100.00
46614;BME280;32338;50.430;6.806;2023-04-12T07:06:03;66022.59;;;5.52;100.00
46614;BME280;32338;50.430;6.806;2023-04-12T07:08:31;66029.88;;;5.59;100.00
46614;BME280;32338;50.430;6.806;2023-04-12T07:10:59;66033.03;;;5.59;100.00
46614;BME280;32338;50.430;6.806;2023-04-12T07:13:25;66033.63;;;5.60;100.00
46614;BME280;32338;50.430;6.806;2023-04-12T07:15:52;66041.81;;;5.65;100.00
46614;BME280;32338;50.430;6.806;2023-04-12T07:18:19;66054.91;;;5.79;100.00
46614;BME280;32338;50.430;6.806;2023-04-12T07:20:46;66054.38;;;5.79;100.00
46614;BME280;32338;50.430;6.806;2023-04-12T07:23:14;66040.75;;;5.71;100.00
46614;BME280;32338;50.430;6.806;2023-04-12T07:25:41;66055.69;;;5.82;100.00
46614;BME280;32338;50.430;6.806;2023-04-12T07:28:09;66063.56;;;5.90;100.00
46614;BME280;32338;50.430;6.806;2023-04-12T07:30:37;66056.03;;;5.80;100.00
46614;BME280;32338;50.430;6.806;2023-04-12T07:33:04;66065.03;;;5.89;100.00
46614;BME280;32338;50.430;6.806;2023-04-12T07:35:31;66066.38;;;5.92;100.00
46614;BME280;32338;50.430;6.806;2023-04-12T07:37:58;66065.25;;;5.91;100.00
46614;BME280;32338;50.430;6.806;2023-04-12T07:40:25;66076.47;;;6.02;100.00
46614;BME280;32338;50.430;6.806;2023-04-12T07:42:52;66095.34;;;6.16;100.00
46614;BME280;32338;50.430;6.806;2023-04-12T07:45:20;66092.56;;;6.14;100.00
46614;BME280;32338;50.430;6.806;2023-04-12T07:47:47;66095.34;;;6.16;100.00
46614;BME280;32338;50.430;6.806;2023-04-12T07:50:13;66113.69;;;6.31;100.00
46614;BME280;32338;50.430;6.806;2023-04-12T07:52:40;66127.56;;;6.48;100.00
46614;BME280;32338;50.430;6.806;2023-04-12T07:55:07;66132.25;;;6.55;100.00
46614;BME280;32338;50.430;6.806;2023-04-12T07:57:34;66147.75;;;6.67;100.00
46614;BME280;32338;50.430;6.806;2023-04-12T08:00:01;66141.03;;;6.61;100.00
46614;BME280;32338;50.430;6.806;2023-04-12T08:02:31;66135.25;;;6.60;100.00
46614;BME280;32338;50.430;6.806;2023-04-12T08:04:57;66142.16;;;6.62;100.00
46614;BME280;32338;50.430;6.806;2023-04-12T08:07:24;66141.03;;;6.61;100.00
46614;BME280;32338;50.430;6.806;2023-04-12T08:09:52;66140.63;;;6.56;100.00
46614;BME280;32338;50.430;6.806;2023-04-12T08:12:18;66135.22;;;6.53;100.00
46614;BME280;32338;50.430;6.806;2023-04-12T08:14:46;66143.28;;;6.63;100.00
46614;BME280;32338;50.430;6.806;2023-04-12T08:17:12;66143.28;;;6.63;100.00
46614;BME280;32338;50.430;6.806;2023-04-12T08:19:41;66140.13;;;6.62;100.00
46614;BME280;32338;50.430;6.806;2023-04-12T08:22:07;66146.44;;;6.63;100.00
46614;BME280;32338;50.430;6.806;2023-04-12T08:24:34;66145.31;;;6.62;100.00
46614;BME280;32338;50.430;6.806;2023-04-12T08:27:00;66139.72;;;6.57;100.00
46614;BME280;32338;50.430;6.806;2023-04-12T08:29:27;66150.94;;;6.68;100.00
46614;BME280;32338;50.430;6.806;2023-04-12T08:31:55;66161.63;;;6.77;100.00
46614;BME280;32338;50.430;6.806;2023-04-12T08:34:24;66171.91;;;6.89;100.00
46614;BME280;32338;50.430;6.806;2023-04-12T08:36:52;66169.84;;;6.90;100.00
46614;BME280;32338;50.430;6.806;2023-04-12T08:39:19;66173.25;;;6.93;100.00
46614;BME280;32338;50.430;6.806;2023-04-12T08:41:46;66173.97;;;6.89;100.00
46614;BME280;32338;50.430;6.806;2023-04-12T08:44:14;66179.22;;;6.96;100.00
46614;BME280;32338;50.430;6.806;2023-04-12T08:46:40;66171.56;;;6.91;100.00
46614;BME280;32338;50.430;6.806;2023-04-12T08:49:09;66181.25;;;6.95;100.00
46614;BME280;32338;50.430;6.806;2023-04-12T08:51:35;66176.97;;;6.94;100.00
46614;BME280;32338;50.430;6.806;2023-04-12T08:54:04;66185.19;;;6.99;100.00
46614;BME280;32338;50.430;6.806;2023-04-12T08:56:31;66174.16;;;6.91;100.00
46614;BME280;32338;50.430;6.806;2023-04-12T08:58:57;66176.59;;;6.96;100.00
46614;BME280;32338;50.430;6.806;2023-04-12T09:01:24;66185.94;;;7.02;100.00
46614;BME280;32338;50.430;6.806;2023-04-12T09:03:51;66178.84;;;6.98;100.00
46614;BME280;32338;50.430;6.806;2023-04-12T09:06:18;66178.66;;;6.95;100.00
46614;BME280;32338;50.430;6.806;2023-04-12T09:08:52;66175.66;;;6.90;100.00
46614;BME280;32338;50.430;6.806;2023-04-12T09:11:24;66175.69;;;6.97;100.00
46614;BME280;32338;50.430;6.806;2023-04-12T09:13:51;66186.31;;;7.00;100.00
46614;BME280;32338;50.430;6.806;2023-04-12T09:16:33;66191.59;;;7.07;100.00
46614;BME280;32338;50.430;6.806;2023-04-12T09:19:00;66198.88;;;7.14;100.00
46614;BME280;32338;50.430;6.806;2023-04-12T09:21:27;66186.31;;;7.00;100.00
46614;BME280;32338;50.430;6.806;2023-04-12T09:24:04;66185.94;;;7.02;100.00
46614;BME280;32338;50.430;6.806;2023-04-12T09:26:35;66194.19;;;7.07;100.00
46614;BME280;32338;50.430;6.806;2023-04-12T09:29:01;66192.88;;;7.11;100.00
46614;BME280;32338;50.430;6.806;2023-04-12T09:31:28;66196.78;;;7.07;100.00
46614;BME280;32338;50.430;6.806;2023-04-12T09:34:05;66192.69;;;7.08;100.00
46614;BME280;32338;50.430;6.806;2023-04-12T09:36:36;66200.00;;;7.15;100.00
46614;BME280;32338;50.430;6.806;2023-04-12T09:39:03;66203.22;;;7.23;100.00
46614;BME280;32338;50.430;6.806;2023-04-12T09:41:30;66206.75;;;7.21;100.00
46614;BME280;32338;50.430;6.806;2023-04-12T09:43:59;66217.06;;;7.33;100.00
46614;BME280;32338;50.430;6.806;2023-04-12T09:46:26;66219.09;;;7.33;100.00
46614;BME280;32338;50.430;6.806;2023-04-12T09:48:54;66222.47;;;7.36;100.00
46614;BME280;32338;50.430;6.806;2023-04-12T09:51:24;66237.28;;;7.52;100.00
46614;BME280;32338;50.430;6.806;2023-04-12T09:53:53;66266.50;;;7.78;100.00
46614;BME280;32338;50.430;6.806;2023-04-12T09:56:24;66263.50;;;7.73;100.00
46614;BME280;32338;50.430;6.806;2023-04-12T09:58:53;66266.69;;;7.74;100.00
46614;BME280;32338;50.430;6.806;2023-04-12T10:01:21;66283.72;;;7.92;100.00
46614;BME280;32338;50.430;6.806;2023-04-12T10:03:49;66296.66;;;8.04;100.00
46614;BME280;32338;50.430;6.806;2023-04-12T10:06:18;66309.25;;;8.18;100.00
46614;BME280;32338;50.430;6.806;2023-04-12T10:08:45;66298.91;;;8.06;100.00
46614;BME280;32338;50.430;6.806;2023-04-12T10:11:12;66314.09;;;8.20;100.00
46614;BME280;32338;50.430;6.806;2023-04-12T10:13:39;66319.16;;;8.24;100.00
46614;BME280;32338;50.430;6.806;2023-04-12T10:16:08;66306.06;;;8.17;100.00
46614;BME280;32338;50.430;6.806;2023-04-12T10:18:37;66323.44;;;8.26;100.00
46614;BME280;32338;50.430;6.806;2023-04-12T10:21:05;66329.84;;;8.34;100.00
46614;BME280;32338;50.430;6.806;2023-04-12T10:23:33;66332.66;;;8.37;100.00
46614;BME280;32338;50.430;6.806;2023-04-12T10:26:02;66344.50;;;8.48;100.00
46614;BME280;32338;50.430;6.806;2023-04-12T10:28:29;66346.72;;;8.50;100.00
46614;BME280;32338;50.430;6.806;2023-04-12T10:30:56;66363.25;;;8.67;100.00
46614;BME280;32338;50.430;6.806;2023-04-12T10:33:25;66365.50;;;8.69;100.00
46614;BME280;32338;50.430;6.806;2023-04-12T10:35:58;66356.13;;;8.63;100.00
46614;BME280;32338;50.430;6.806;2023-04-12T10:38:28;66366.22;;;8.65;100.00
46614;BME280;32338;50.430;6.806;2023-04-12T10:41:11;66360.59;;;8.60;100.00
46614;BME280;32338;50.430;6.806;2023-04-12T10:43:38;66350.31;;;8.55;100.00
46614;BME280;32338;50.430;6.806;2023-04-12T10:46:05;66372.59;;;8.73;100.00
46614;BME280;32338;50.430;6.806;2023-04-12T10:48:33;66381.59;;;8.82;100.00
46614;BME280;32338;50.430;6.806;2023-04-12T10:51:17;66377.50;;;8.83;100.00
46614;BME280;32338;50.430;6.806;2023-04-12T10:53:48;66389.84;;;8.87;100.00
46614;BME280;32338;50.430;6.806;2023-04-12T10:56:34;66397.34;;;8.96;100.00
46614;BME280;32338;50.430;6.806;2023-04-12T10:59:02;66416.13;;;9.16;100.00
46614;BME280;32338;50.430;6.806;2023-04-12T11:01:29;66429.06;;;9.28;100.00
46614;BME280;32338;50.430;6.806;2023-04-12T11:04:15;66449.50;;;9.41;100.00
46614;BME280;32338;50.430;6.806;2023-04-12T11:06:49;66459.84;;;9.53;100.00
46614;BME280;32338;50.430;6.806;2023-04-12T11:09:17;66456.47;;;9.50;100.00
46614;BME280;32338;50.430;6.806;2023-04-12T11:11:44;66455.69;;;9.47;100.00
46614;BME280;32338;50.430;6.806;2023-04-12T11:14:11;66444.78;;;9.35;100.00
46614;BME280;32338;50.430;6.806;2023-04-12T11:19:39;66416.88;;;9.12;100.00
46614;BME280;32338;50.430;6.806;2023-04-12T11:22:10;66404.69;;;9.03;100.00
46614;BME280;32338;50.430;6.806;2023-04-12T11:24:37;66379.34;;;8.80;100.00
46614;BME280;32338;50.430;6.806;2023-04-12T11:27:04;66372.03;;;8.73;100.00
46614;BME280;32338;50.430;6.806;2023-04-12T11:29:31;66360.22;;;8.62;100.00
46614;BME280;32338;50.430;6.806;2023-04-12T11:32:01;66332.28;;;8.39;100.00
46614;BME280;32338;50.430;6.806;2023-04-12T11:34:31;66327.22;;;8.34;100.00
46614;BME280;32338;50.430;6.806;2023-04-12T11:36:58;66331.53;;;8.36;100.00
46614;BME280;32338;50.430;6.806;2023-04-12T11:39:26;66322.16;;;8.30;100.00
46614;BME280;32338;50.430;6.806;2023-04-12T11:41:54;66349.19;;;8.54;100.00
46614;BME280;32338;50.430;6.806;2023-04-12T11:44:22;66378.97;;;8.74;100.00
46614;BME280;32338;50.430;6.806;2023-04-12T11:46:50;66387.78;;;8.87;100.00
46614;BME280;32338;50.430;6.806;2023-04-12T11:49:19;66407.50;;;9.05;100.00
46614;BME280;32338;50.430;6.806;2023-04-12T11:51:46;66396.81;;;8.96;100.00
46614;BME280;32338;50.430;6.806;2023-04-12T11:54:13;66425.31;;;9.19;100.00
46614;BME280;32338;50.430;6.806;2023-04-12T11:56:41;66426.63;;;9.23;100.00
46614;BME280;32338;50.430;6.806;2023-04-12T11:59:07;66403.56;;;9.02;100.00
46614;BME280;32338;50.430;6.806;2023-04-12T12:01:34;66397.94;;;8.97;100.00
46614;BME280;32338;50.430;6.806;2023-04-12T12:04:02;66427.56;;;9.21;100.00
46614;BME280;32338;50.430;6.806;2023-04-12T12:06:29;66410.50;;;9.11;100.00
46614;BME280;32338;50.430;6.806;2023-04-12T12:08:57;66407.88;;;9.11;100.00
46614;BME280;32338;50.430;6.806;2023-04-12T12:11:24;66437.88;;;9.33;100.00
46614;BME280;32338;50.430;6.806;2023-04-12T12:13:54;66486.28;;;9.78;100.00
46614;BME280;32338;50.430;6.806;2023-04-12T12:16:23;66513.31;;;10.02;100.00
46614;BME280;32338;50.430;6.806;2023-04-12T12:18:50;66527.59;;;10.18;100.00
46614;BME280;32338;50.430;6.806;2023-04-12T12:21:17;66505.66;;;9.98;100.00
46614;BME280;32338;50.430;6.806;2023-04-12T12:23:45;66517.25;;;10.06;100.00
46614;BME280;32338;50.430;6.806;2023-04-12T12:26:18;66542.78;;;10.25;100.00
46614;BME280;32338;50.430;6.806;2023-04-12T12:28:48;66566.66;;;10.49;100.00
46614;BME280;32338;50.430;6.806;2023-04-12T12:31:19;66548.09;;;10.39;100.00
46614;BME280;32338;50.430;6.806;2023-04-12T12:33:46;66559.19;;;10.47;100.00
46614;BME280;32338;50.430;6.806;2023-04-12T12:36:16;66563.47;;;10.48;100.00
46614;BME280;32338;50.430;6.806;2023-04-12T12:38:43;66595.97;;;10.76;100.00
46614;BME280;32338;50.430;6.806;2023-04-12T12:41:14;66591.84;;;10.69;100.00
46614;BME280;32338;50.430;6.806;2023-04-12T12:43:44;66574.38;;;10.61;100.00
46614;BME280;32338;50.430;6.806;2023-04-12T12:46:10;66555.03;;;10.41;100.00
46614;BME280;32338;50.430;6.806;2023-04-12T12:48:39;66534.38;;;10.24;100.00
46614;BME280;32338;50.430;6.806;2023-04-12T12:51:06;66517.25;;;10.06;100.00
46614;BME280;32338;50.430;6.806;2023-04-12T12:53:33;66533.03;;;10.20;100.00
46614;BME280;32338;50.430;6.806;2023-04-12T12:56:00;66528.16;;;10.18;100.00
46614;BME280;32338;50.430;6.806;2023-04-12T12:58:27;66521.22;;;10.10;100.00
46614;BME280;32338;50.430;6.806;2023-04-12T13:00:54;66537.91;;;10.22;100.00
46614;BME280;32338;50.430;6.806;2023-04-12T13:03:20;66558.78;;;10.42;100.00
46614;BME280;32338;50.430;6.806;2023-04-12T13:05:49;66552.78;;;10.38;100.00
46614;BME280;32338;50.430;6.806;2023-04-12T13:08:16;66557.28;;;10.43;100.00